createdAt,value
2023-02-22T00:01:35.574Z,9.50
2023-02-22T00:04:05.185Z,10.13
2023-02-22T00:06:32.434Z,8.30
2023-02-22T00:08:59.821Z,5.93
2023-02-22T00:11:26.952Z,6.83
2023-02-22T00:13:57.124Z,9.60
2023-02-22T00:16:25.512Z,19.97
2023-02-22T00:18:53.367Z,8.93
2023-02-22T00:21:20.731Z,10.30
2023-02-22T00:23:48.454Z,6.60
2023-02-22T00:26:18.983Z,7.20
2023-02-22T00:28:54.063Z,8.67
2023-02-22T00:31:21.896Z,5.67
2023-02-22T00:33:49.481Z,6.87
2023-02-22T00:36:17.380Z,9.07
2023-02-22T00:38:44.130Z,11.60
2023-02-22T00:41:12.114Z,9.63
2023-02-22T00:43:38.872Z,7.73
2023-02-22T00:46:05.781Z,10.10
2023-02-22T00:48:32.726Z,6.90
2023-02-22T00:50:59.471Z,5.37
2023-02-22T00:53:26.791Z,6.53
2023-02-22T00:55:54.025Z,4.97
2023-02-22T00:58:21.895Z,6.00
2023-02-22T01:00:49.765Z,5.03
2023-02-22T01:03:19.920Z,4.80
2023-02-22T01:05:47.064Z,5.60
2023-02-22T01:08:15.749Z,4.73
2023-02-22T01:10:42.967Z,5.60
2023-02-22T01:13:12.335Z,5.53
2023-02-22T01:15:41.957Z,4.50
2023-02-22T01:18:09.446Z,5.70
2023-02-22T01:20:36.896Z,4.80
2023-02-22T01:23:07.791Z,5.67
2023-02-22T01:25:35.498Z,6.03
2023-02-22T01:28:04.377Z,4.83
2023-02-22T01:30:36.746Z,5.57
2023-02-22T01:33:06.183Z,4.67
2023-02-22T01:35:36.254Z,5.60
2023-02-22T01:38:03.272Z,5.50
2023-02-22T01:40:33.513Z,6.37
2023-02-22T01:43:03.678Z,5.03
2023-02-22T01:45:41.959Z,5.67
2023-02-22T01:48:08.800Z,5.10
2023-02-22T01:50:44.989Z,5.47
2023-02-22T01:53:16.067Z,7.17
2023-02-22T01:55:44.216Z,4.73
2023-02-22T01:58:11.537Z,5.33
2023-02-22T02:00:39.975Z,6.33
2023-02-22T02:03:14.908Z,5.10
2023-02-22T02:05:42.896Z,5.63
2023-02-22T02:08:36.164Z,5.47
2023-02-22T02:11:05.300Z,5.40
2023-02-22T02:13:32.238Z,5.63
2023-02-22T02:16:01.006Z,6.17
2023-02-22T02:18:29.428Z,5.30
2023-02-22T02:21:31.929Z,4.87
2023-02-22T02:24:10.815Z,6.47
2023-02-22T02:27:10.221Z,5.57
2023-02-22T02:30:11.555Z,7.40
2023-02-22T02:33:14.517Z,6.77
2023-02-22T02:36:03.888Z,6.77
2023-02-22T02:38:38.570Z,6.60
2023-02-22T02:41:28.836Z,6.77
2023-02-22T02:44:07.769Z,7.17
2023-02-22T02:46:40.124Z,6.10
2023-02-22T02:49:12.275Z,8.60
2023-02-22T02:51:44.221Z,7.07
2023-02-22T02:54:12.780Z,6.47
2023-02-22T02:56:40.585Z,6.97
2023-02-22T02:59:28.260Z,7.10
2023-02-22T03:02:04.961Z,7.40
2023-02-22T03:04:45.965Z,8.23
2023-02-22T03:07:39.091Z,6.77
2023-02-22T03:10:20.354Z,7.07
2023-02-22T03:12:50.983Z,9.00
2023-02-22T03:15:32.481Z,6.53
2023-02-22T03:18:29.048Z,8.07
2023-02-22T03:21:25.553Z,8.73
2023-02-22T03:24:21.473Z,7.27
2023-02-22T03:27:11.545Z,8.03
2023-02-22T03:29:45.674Z,7.97
2023-02-22T03:32:20.480Z,8.47
2023-02-22T03:34:53.079Z,8.17
2023-02-22T03:37:25.729Z,8.77
2023-02-22T03:39:55.096Z,8.63
2023-02-22T03:42:26.644Z,8.13
2023-02-22T03:44:55.164Z,6.77
2023-02-22T03:47:31.161Z,8.37
2023-02-22T03:50:07.649Z,7.07
2023-02-22T03:52:36.224Z,6.73
2023-02-22T03:55:11.013Z,10.90
2023-02-22T03:57:41.524Z,6.17
2023-02-22T04:00:11.405Z,6.00
2023-02-22T04:02:41.771Z,7.57
2023-02-22T04:05:14.204Z,7.67
2023-02-22T04:07:42.287Z,8.63
2023-02-22T04:10:11.981Z,7.83
2023-02-22T04:12:38.807Z,6.57
2023-02-22T04:15:08.909Z,7.73
2023-02-22T04:17:36.532Z,7.60
2023-02-22T04:20:05.024Z,8.03
2023-02-22T04:22:44.708Z,7.97
2023-02-22T04:25:12.470Z,10.30
2023-02-22T04:27:39.364Z,8.03
2023-02-22T04:30:06.559Z,7.00
2023-02-22T04:32:35.371Z,8.63
2023-02-22T04:35:02.801Z,8.40
2023-02-22T04:37:31.122Z,7.50
2023-02-22T04:39:58.051Z,7.93
2023-02-22T04:42:24.866Z,9.53
2023-02-22T04:44:52.204Z,7.93
2023-02-22T04:47:19.749Z,8.67
2023-02-22T04:49:46.496Z,7.77
2023-02-22T04:52:13.914Z,10.90
2023-02-22T04:54:40.740Z,8.47
2023-02-22T04:57:07.526Z,9.70
2023-02-22T04:59:34.364Z,8.70
2023-02-22T05:02:02.156Z,7.50
2023-02-22T05:04:28.944Z,6.93
2023-02-22T05:06:55.847Z,9.97
2023-02-22T05:09:22.628Z,7.17
2023-02-22T05:11:49.451Z,9.73
2023-02-22T05:14:16.742Z,7.77
2023-02-22T05:16:43.830Z,8.27
2023-02-22T05:19:10.962Z,7.80
2023-02-22T05:21:37.884Z,6.37
2023-02-22T05:24:05.005Z,8.47
2023-02-22T05:26:31.888Z,10.03
2023-02-22T05:28:58.709Z,7.37
2023-02-22T05:31:25.537Z,8.80
2023-02-22T05:33:56.541Z,9.73
2023-02-22T05:36:23.312Z,10.03
2023-02-22T05:38:50.045Z,8.73
2023-02-22T05:41:17.148Z,8.60
2023-02-22T05:43:44.164Z,8.90
2023-02-22T05:46:10.932Z,9.83
2023-02-22T05:48:38.088Z,9.87
2023-02-22T05:51:05.025Z,10.70
2023-02-22T05:53:31.888Z,9.97
2023-02-22T05:55:58.733Z,9.37
2023-02-22T05:58:25.474Z,10.90
2023-02-22T06:00:52.368Z,9.03
2023-02-22T06:03:19.154Z,7.83
2023-02-22T06:05:45.977Z,9.43
2023-02-22T06:08:12.814Z,9.57
2023-02-22T06:10:39.549Z,9.23
2023-02-22T06:13:07.484Z,11.20
2023-02-22T06:15:34.230Z,8.80
2023-02-22T06:18:01.954Z,8.80
2023-02-22T06:20:30.065Z,8.77
2023-02-22T06:22:59.233Z,8.73
2023-02-22T06:25:28.455Z,10.73
2023-02-22T06:27:55.134Z,10.40
2023-02-22T06:30:24.367Z,10.03
2023-02-22T06:32:51.242Z,11.07
2023-02-22T06:35:18.782Z,8.07
2023-02-22T06:37:45.907Z,8.30
2023-02-22T06:40:13.160Z,8.07
2023-02-22T06:42:40.262Z,8.87
2023-02-22T06:45:07.644Z,9.13
2023-02-22T06:47:39.283Z,8.63
2023-02-22T06:50:35.933Z,11.10
2023-02-22T06:53:03.134Z,8.73
2023-02-22T06:55:32.356Z,9.97
2023-02-22T06:58:00.471Z,9.73
2023-02-22T07:00:29.524Z,8.67
2023-02-22T07:02:57.075Z,10.57
2023-02-22T07:05:25.664Z,8.07
2023-02-22T07:07:54.908Z,9.53
2023-02-22T07:10:27.957Z,10.03
2023-02-22T07:12:58.089Z,10.17
2023-02-22T07:15:27.879Z,9.50
2023-02-22T07:17:55.311Z,9.57
2023-02-22T07:20:24.408Z,10.73
2023-02-22T07:22:51.742Z,10.40
2023-02-22T07:25:19.346Z,10.73
2023-02-22T07:27:46.654Z,9.60
2023-02-22T07:30:28.015Z,9.50
2023-02-22T07:32:55.565Z,8.97
2023-02-22T07:35:30.926Z,11.07
2023-02-22T07:37:58.214Z,10.47
2023-02-22T07:40:26.862Z,10.60
2023-02-22T07:43:27.313Z,8.70
2023-02-22T07:45:57.112Z,9.10
2023-02-22T07:48:26.574Z,8.23
2023-02-22T07:50:53.527Z,7.70
2023-02-22T07:53:23.140Z,8.60
2023-02-22T07:55:51.241Z,8.07
2023-02-22T07:58:23.933Z,7.07
2023-02-22T08:00:50.737Z,7.17
2023-02-22T08:03:19.206Z,9.30
2023-02-22T08:05:48.790Z,7.73
2023-02-22T08:08:19.957Z,8.40
2023-02-22T08:10:47.767Z,8.77
2023-02-22T08:13:15.299Z,7.07
2023-02-22T08:15:43.985Z,6.13
2023-02-22T08:18:14.693Z,7.47
2023-02-22T08:20:43.203Z,9.30
2023-02-22T08:23:12.295Z,6.97
2023-02-22T08:25:39.165Z,6.30
2023-02-22T08:28:12.098Z,6.47
2023-02-22T08:33:28.740Z,5.70
2023-02-22T08:35:55.793Z,6.80
2023-02-22T08:38:26.338Z,7.73
2023-02-22T08:40:53.309Z,10.63
2023-02-22T08:43:21.131Z,6.60
2023-02-22T08:45:48.438Z,7.17
2023-02-22T08:48:17.740Z,8.30
2023-02-22T08:50:44.647Z,6.33
2023-02-22T08:53:13.712Z,7.07
2023-02-22T08:55:41.851Z,7.50
2023-02-22T08:58:12.248Z,7.90
2023-02-22T09:00:40.609Z,6.97
2023-02-22T09:03:10.662Z,7.33
2023-02-22T09:05:37.849Z,7.63
2023-02-22T09:08:05.429Z,6.10
2023-02-22T09:10:34.557Z,5.83
2023-02-22T09:13:02.414Z,9.60
2023-02-22T09:15:29.950Z,6.73
2023-02-22T09:17:57.203Z,6.70
2023-02-22T09:20:25.410Z,5.50
2023-02-22T09:22:52.632Z,6.20
2023-02-22T09:25:22.748Z,5.77
2023-02-22T09:27:53.701Z,6.63
2023-02-22T09:30:33.667Z,5.90
2023-02-22T09:33:07.098Z,5.97
2023-02-22T09:35:36.282Z,5.57
2023-02-22T09:38:06.266Z,6.63
2023-02-22T09:40:40.949Z,5.97
2023-02-22T09:43:37.121Z,5.93
2023-02-22T09:46:12.115Z,4.03
2023-02-22T09:48:48.363Z,4.20
2023-02-22T09:51:17.333Z,6.03
2023-02-22T09:53:50.713Z,4.47
2023-02-22T09:56:19.773Z,4.37
2023-02-22T09:58:52.164Z,4.07
2023-02-22T10:01:28.094Z,4.77
2023-02-22T10:04:12.403Z,3.57
2023-02-22T10:06:44.188Z,4.47
2023-02-22T10:09:11.510Z,3.57
2023-02-22T10:12:12.674Z,4.00
2023-02-22T10:15:09.047Z,4.70
2023-02-22T10:18:03.540Z,2.70
2023-02-22T10:20:37.541Z,3.73
2023-02-22T10:23:28.903Z,3.60
2023-02-22T10:26:08.910Z,3.97
2023-02-22T10:28:42.309Z,5.50
2023-02-22T10:31:19.551Z,2.83
2023-02-22T10:33:59.898Z,2.43
2023-02-22T10:36:27.409Z,2.40
2023-02-22T10:39:13.393Z,2.50
2023-02-22T10:41:48.966Z,3.20
2023-02-22T10:44:15.876Z,4.77
2023-02-22T10:46:44.627Z,4.67
2023-02-22T10:49:18.605Z,3.47
2023-02-22T10:51:47.981Z,3.67
2023-02-22T10:54:14.885Z,3.87
2023-02-22T10:56:48.285Z,4.90
2023-02-22T11:13:02.780Z,6.17
2023-02-22T11:15:31.300Z,3.07
2023-02-22T11:18:01.301Z,2.20
2023-02-22T11:20:34.561Z,2.40
2023-02-22T11:23:04.169Z,2.80
2023-02-22T11:25:36.601Z,1.70
2023-02-22T11:28:30.717Z,3.10
2023-02-22T11:31:08.786Z,1.97
2023-02-22T11:33:37.370Z,2.97
2023-02-22T11:36:08.828Z,3.17
2023-02-22T11:38:40.037Z,4.27
2023-02-22T11:41:14.796Z,2.83
2023-02-22T11:43:50.228Z,2.50
2023-02-22T11:46:23.067Z,3.10
2023-02-22T11:49:09.614Z,1.37
2023-02-22T11:51:53.424Z,2.63
2023-02-22T11:54:38.311Z,4.20
2023-02-22T11:57:32.627Z,1.20
2023-02-22T12:00:24.216Z,1.10
2023-02-22T12:02:57.625Z,1.03
2023-02-22T12:05:45.759Z,1.13
2023-02-22T12:08:28.812Z,1.67
2023-02-22T12:11:07.061Z,3.67
2023-02-22T12:13:52.166Z,1.17
2023-02-22T12:16:38.093Z,1.90
2023-02-22T12:19:25.408Z,1.17
2023-02-22T12:22:08.391Z,1.00
2023-02-22T12:24:42.756Z,1.77
2023-02-22T12:27:15.731Z,1.13
2023-02-22T12:29:57.784Z,1.97
2023-02-22T12:32:33.471Z,1.60
2023-02-22T12:35:27.940Z,1.10
2023-02-22T12:38:23.240Z,0.97
2023-02-22T12:41:27.380Z,1.83
2023-02-22T12:43:58.785Z,1.87
2023-02-22T12:46:39.160Z,1.30
2023-02-22T12:49:26.166Z,4.07
2023-02-22T12:51:58.792Z,2.80
2023-02-22T12:54:45.778Z,1.33
2023-02-22T12:57:45.390Z,1.30
2023-02-22T13:00:37.604Z,1.77
2023-02-22T13:03:25.921Z,1.97
2023-02-22T13:06:25.940Z,2.27
2023-02-22T13:08:58.791Z,4.83
2023-02-22T13:11:25.528Z,1.30
2023-02-22T13:13:56.014Z,1.73
2023-02-22T13:16:31.735Z,2.40
2023-02-22T13:19:34.849Z,1.87
2023-02-22T13:22:10.589Z,1.90
2023-02-22T13:24:46.293Z,1.80
2023-02-22T13:27:21.388Z,1.30
2023-02-22T13:29:52.018Z,3.90
2023-02-22T13:32:18.733Z,1.43
2023-02-22T13:35:16.385Z,1.20
2023-02-22T13:38:01.606Z,1.13
2023-02-22T13:40:31.162Z,1.00
2023-02-22T13:43:25.815Z,1.20
2023-02-22T13:46:17.118Z,1.77
2023-02-22T13:48:56.137Z,1.70
2023-02-22T13:51:47.962Z,1.47
2023-02-22T13:54:17.544Z,1.40
2023-02-22T13:56:48.029Z,1.27
2023-02-22T13:59:29.271Z,1.40
2023-02-22T14:01:57.141Z,1.43
2023-02-22T14:04:26.946Z,1.43
2023-02-22T14:07:25.910Z,8.83
2023-02-22T14:09:53.542Z,3.77
2023-02-22T14:12:35.069Z,1.60
2023-02-22T14:15:26.753Z,2.77
2023-02-22T14:18:07.276Z,2.00
2023-02-22T14:20:37.146Z,2.47
2023-02-22T14:23:43.222Z,2.63
2023-02-22T14:26:19.415Z,2.57
2023-02-22T14:29:09.305Z,1.40
2023-02-22T14:31:44.936Z,1.87
2023-02-22T14:34:15.948Z,1.70
2023-02-22T14:36:51.963Z,1.97
2023-02-22T14:39:31.711Z,1.80
2023-02-22T14:42:21.171Z,2.63
2023-02-22T14:44:57.648Z,3.97
2023-02-22T14:47:49.483Z,2.73
2023-02-22T14:50:48.795Z,4.17
2023-02-22T14:53:25.499Z,3.77
2023-02-22T14:56:04.634Z,6.30
2023-02-22T14:58:41.674Z,3.93
2023-02-22T15:01:47.439Z,4.43
2023-02-22T15:04:33.166Z,4.23
2023-02-22T15:07:07.861Z,4.30
2023-02-22T15:09:37.411Z,4.50
2023-02-22T15:12:04.231Z,4.27
2023-02-22T15:14:37.841Z,4.27
2023-02-22T15:17:13.623Z,4.83
2023-02-22T15:19:41.655Z,6.50
2023-02-22T15:22:38.141Z,5.37
2023-02-22T15:25:09.637Z,7.87
2023-02-22T15:27:37.310Z,7.20
2023-02-22T15:30:16.638Z,5.20
2023-02-22T15:33:01.221Z,5.87
2023-02-22T15:35:31.758Z,7.47
2023-02-22T15:38:12.687Z,6.13
2023-02-22T15:40:45.157Z,7.17
2023-02-22T15:43:28.486Z,6.50
2023-02-22T15:45:56.259Z,5.63
2023-02-22T15:48:26.167Z,5.10
2023-02-22T15:51:14.529Z,7.67
2023-02-22T15:53:47.155Z,7.10
2023-02-22T15:56:35.960Z,9.60
2023-02-22T15:59:07.652Z,8.57
2023-02-22T16:01:43.175Z,7.93
2023-02-22T16:04:22.295Z,11.20
2023-02-22T16:06:55.013Z,8.87
2023-02-22T16:09:30.262Z,12.10
2023-02-22T16:12:23.312Z,10.00
2023-02-22T16:14:52.278Z,9.77
2023-02-22T16:17:25.098Z,11.80
2023-02-22T16:19:53.207Z,9.47
2023-02-22T16:22:37.304Z,10.53
2023-02-22T16:25:25.159Z,10.27
2023-02-22T16:27:57.344Z,10.13
2023-02-22T16:30:32.380Z,11.60
2023-02-22T16:33:00.908Z,9.90
2023-02-22T16:35:29.297Z,11.13
2023-02-22T16:38:08.035Z,13.53
2023-02-22T16:40:41.394Z,13.30
2023-02-22T16:43:12.365Z,11.00
2023-02-22T16:45:42.003Z,8.83
2023-02-22T16:48:32.983Z,11.23
2023-02-22T16:51:06.278Z,13.57
2023-02-22T16:53:33.574Z,9.73
2023-02-22T16:56:05.165Z,11.87
2023-02-22T16:58:36.015Z,11.67
2023-02-22T17:01:02.963Z,11.50
2023-02-22T17:03:29.751Z,13.00
2023-02-22T17:05:57.493Z,13.53
2023-02-22T17:08:24.319Z,9.60
2023-02-22T17:10:56.640Z,12.87
2023-02-22T17:13:27.300Z,8.13
2023-02-22T17:15:54.940Z,11.83
2023-02-22T17:18:23.158Z,7.93
2023-02-22T17:20:53.263Z,8.37
2023-02-22T17:23:21.711Z,10.33
2023-02-22T17:25:55.705Z,9.70
2023-02-22T17:28:24.642Z,12.33
2023-02-22T17:30:53.144Z,9.27
2023-02-22T17:33:26.564Z,8.83
2023-02-22T17:35:57.930Z,9.77
2023-02-22T17:38:28.807Z,11.03
2023-02-22T17:40:56.250Z,7.83
2023-02-22T17:43:23.705Z,13.00
2023-02-22T17:45:50.967Z,8.00
2023-02-22T17:48:18.440Z,8.23
2023-02-22T17:50:46.597Z,10.77
2023-02-22T17:53:14.043Z,7.23
2023-02-22T17:55:42.491Z,8.70
2023-02-22T17:58:14.697Z,10.60
2023-02-22T18:00:47.617Z,9.37
2023-02-22T18:03:21.094Z,12.73
2023-02-22T18:05:49.819Z,7.33
2023-02-22T18:08:17.085Z,9.40
2023-02-22T18:10:44.620Z,11.60
2023-02-22T18:13:18.011Z,12.03
2023-02-22T18:15:46.582Z,8.37
2023-02-22T18:18:14.795Z,10.53
2023-02-22T18:20:43.959Z,12.73
2023-02-22T18:23:17.424Z,10.73
2023-02-22T18:26:03.707Z,10.93
2023-02-22T18:28:35.765Z,9.23
2023-02-22T18:31:10.569Z,10.77
2023-02-22T18:33:37.425Z,10.43
2023-02-22T18:36:04.613Z,10.73
2023-02-22T18:38:31.553Z,11.30
2023-02-22T18:41:03.704Z,14.77
2023-02-22T18:43:36.840Z,8.97
2023-02-22T18:46:16.079Z,12.43
2023-02-22T18:48:44.204Z,10.13
2023-02-22T18:51:13.315Z,11.60
2023-02-22T18:53:42.988Z,13.50
2023-02-22T18:56:15.298Z,11.67
2023-02-22T18:58:43.243Z,14.93
2023-02-22T19:01:16.174Z,10.97
2023-02-22T19:03:43.167Z,10.73
2023-02-22T19:06:10.015Z,11.33
2023-02-22T19:08:42.234Z,14.93
2023-02-22T19:11:11.692Z,14.67
2023-02-22T19:13:38.829Z,16.93
2023-02-22T19:16:07.338Z,16.87
2023-02-22T19:18:34.725Z,14.23
2023-02-22T19:21:03.283Z,13.47
2023-02-22T19:23:34.386Z,13.83
2023-02-22T19:26:03.203Z,13.80
2023-02-22T19:28:36.194Z,20.60
2023-02-22T19:31:16.801Z,16.87
2023-02-22T19:33:44.516Z,13.47
2023-02-22T19:36:12.879Z,16.20
2023-02-22T19:38:40.016Z,19.27
2023-02-22T19:41:12.428Z,16.33
2023-02-22T19:43:39.472Z,17.77
2023-02-22T19:46:07.427Z,17.07
2023-02-22T19:48:34.852Z,15.40
2023-02-22T19:51:13.148Z,17.20
2023-02-22T19:53:40.903Z,14.70
2023-02-22T19:56:12.070Z,15.03
2023-02-22T19:58:40.303Z,15.53
2023-02-22T20:01:23.148Z,18.37
2023-02-22T20:03:54.860Z,52.83
2023-02-22T20:06:28.086Z,25.70
2023-02-22T20:08:56.304Z,23.50
2023-02-22T20:11:24.135Z,24.63
2023-02-22T20:13:51.102Z,17.80
2023-02-22T20:16:17.847Z,21.53
2023-02-22T20:18:46.152Z,15.97
2023-02-22T20:21:30.666Z,18.00
2023-02-22T20:23:59.280Z,16.90
2023-02-22T20:26:28.359Z,15.40
2023-02-22T20:28:56.335Z,17.20
2023-02-22T20:31:23.293Z,21.20
2023-02-22T20:33:54.050Z,23.30
2023-02-22T20:36:22.222Z,18.80
2023-02-22T20:38:53.839Z,17.43
2023-02-22T20:41:30.487Z,16.47
2023-02-22T20:43:57.857Z,15.90
2023-02-22T20:46:25.772Z,19.33
2023-02-22T20:48:57.445Z,16.33
2023-02-22T20:51:24.922Z,20.07
2023-02-22T20:53:51.988Z,17.30
2023-02-22T20:56:21.627Z,16.10
2023-02-22T20:58:49.006Z,18.17
2023-02-22T21:01:19.293Z,15.90
2023-02-22T21:03:46.813Z,26.97
2023-02-22T21:06:17.893Z,69.17
2023-02-22T21:08:49.697Z,23.47
2023-02-22T21:11:18.648Z,26.83
2023-02-22T21:13:45.563Z,21.53
2023-02-22T21:16:23.124Z,22.20
2023-02-22T21:18:51.918Z,20.27
2023-02-22T21:21:19.318Z,19.17
2023-02-22T21:23:50.156Z,17.43
2023-02-22T21:26:19.731Z,19.47
2023-02-22T21:28:53.866Z,18.47
2023-02-22T21:31:23.395Z,18.47
2023-02-22T21:33:52.829Z,19.30
2023-02-22T21:36:24.882Z,21.47
2023-02-22T21:38:55.323Z,22.13
2023-02-22T21:41:24.792Z,22.47
2023-02-22T21:43:52.048Z,21.13
2023-02-22T21:46:19.658Z,23.63
2023-02-22T21:48:50.171Z,21.70
2023-02-22T21:51:31.878Z,23.03
2023-02-22T21:54:04.485Z,30.10
2023-02-22T21:56:34.552Z,23.40
2023-02-22T21:59:06.492Z,22.40
2023-02-22T22:01:42.785Z,25.17
2023-02-22T22:04:09.601Z,27.53
2023-02-22T22:06:36.543Z,29.30
2023-02-22T22:09:05.287Z,27.70
2023-02-22T22:11:32.392Z,30.10
2023-02-22T22:14:00.294Z,30.47
2023-02-22T22:16:29.807Z,32.03
2023-02-22T22:18:56.897Z,27.97
2023-02-22T22:21:24.446Z,31.43
2023-02-22T22:23:54.386Z,32.07
2023-02-22T22:26:24.441Z,28.47
2023-02-22T22:28:58.201Z,27.60
2023-02-22T22:31:26.022Z,24.43
2023-02-22T22:33:54.250Z,29.27
2023-02-22T22:36:22.380Z,29.20
2023-02-22T22:38:49.725Z,26.43
2023-02-22T22:41:19.389Z,23.80
2023-02-22T22:43:47.053Z,24.77
2023-02-22T22:46:16.197Z,30.10
2023-02-22T22:48:46.690Z,29.00
2023-02-22T22:51:18.180Z,25.27
2023-02-22T22:53:46.920Z,22.97
2023-02-22T22:56:17.430Z,25.73
2023-02-22T22:58:54.615Z,27.03
2023-02-22T23:01:27.253Z,31.50
2023-02-22T23:04:01.827Z,27.10
2023-02-22T23:06:34.715Z,27.53
2023-02-22T23:09:12.860Z,26.70
2023-02-22T23:11:45.389Z,26.57
2023-02-22T23:14:19.439Z,29.87
2023-02-22T23:16:47.636Z,33.93
2023-02-22T23:19:15.720Z,33.87
2023-02-22T23:21:45.969Z,28.97
2023-02-22T23:24:15.325Z,28.77
2023-02-22T23:26:42.749Z,28.40
2023-02-22T23:29:09.788Z,31.43
2023-02-22T23:31:39.676Z,27.27
2023-02-22T23:34:12.795Z,28.47
2023-02-22T23:36:49.605Z,32.27
2023-02-22T23:39:22.044Z,29.93
2023-02-22T23:41:53.711Z,31.97
2023-02-22T23:44:21.648Z,27.90
2023-02-22T23:46:49.704Z,31.47
2023-02-22T23:49:20.727Z,28.03
2023-02-22T23:51:48.346Z,26.77
2023-02-22T23:54:21.339Z,27.63
2023-02-22T23:56:58.068Z,30.83
2023-02-22T23:59:26.849Z,29.77
